Alcolu, SC

5:24 PM EDT on July 23, 2014 (GMT -0400)
USC Sumter (KSCSUMTE2) Elev 165 ft | 33.93 °N, 80.37 °W | Change Station

Current weather conditions updated 24 minutes ago

Partly Cloudy
Partly Cloudy
94.3 °F
Feels Like 102 °F
N
4.0
Wind Variable Wind from North
Gusts 12.0 mph

Tomorrow is forecast to be nearly the same temperature as today. A few thunderstorms possible tomorrow night.

Today
High -- | Low -- °F
--% Chance of Precip.
Yesterday
High -- | Low -- °F
Precip. -- in
6:26 AM 8:28 PM
Waning Crescent, 8% visible
Pressure 29.97 in
Visibility 10.0 miles
Clouds Clear
Heat Index 102 °F
Dew Point 71 °F
Humidity 47%
Rainfall -999.00 in
Snow Depth Not available.
UV 4.2 out of 12
Pollen 2.80 out of 12
Air Quality Not available.
Flu Activity Not available.
METAR KSMS 232115Z AUTO 25005KT 10SM CLR 33/23 A2997 RMK AO2

More Conditions Fewer Conditions

Pressure 29.97 in
Visibility 10.0 miles
Clouds Clear
Heat Index 102 °F
Dew Point 71 °F
Humidity 47%
Rainfall -999.00 in
Snow Depth Not available.
UV 4.2 out of 12
Pollen 2.80 out of 12
Air Quality Not available.
Flu Activity Not available.
METAR KSMS 232115Z AUTO 25005KT 10SM CLR 33/23 A2997 RMK AO2

More Conditions Fewer Conditions

10-Day Weather Forecast

Almanac

Astronomy

Jul. 23, 2014 Rise Set
Actual Time 6:26 AM EDT 8:28 PM EDT
Civil Twilight 5:58 AM EDT 8:55 PM EDT
Nautical Twilight 5:24 AM EDT 9:29 PM EDT
Astronomical Twilight 4:47 AM EDT 10:06 PM EDT
Moon 3:42 AM EDT 5:56 PM EDT
Length of Visible Light 14h 57m
Length of Day
14h 01m
Tomorrow will be 1m 21s shorter.
Waning Crescent, 8% of the Moon is Illuminated
Today
Waning Crescent
Jul 26
New
Aug 3
First Quarter
Aug 10
Full
Aug 17
Last Quarter

Today's Extremes

State Highs State Lows

Community

WunderPhotos

Upload Photos

1,736,784 photos uploaded!

Nearby

Snow Depth

Station Depth Elevation
No new snow has been reported.

Earthquake Activity

City Distance Mag. Time & Date
No recent earthquake activity has been reported nearby.
Minimum magnitude displayed is 2.5.

Coastal Water Temperatures

Place Temperature
No Stations Reporting

Nearby Weather Stations

Station Location Temp. Heat Index Dew Point Humidity Wind Precip. Elev Updated Type
USC Sumter, Sumter, SC 94.3 °F 102 °F 71 °F 47% North  at  4.0 mph 0.00 in / hr 165 ft 5:00 PM EDT Normal
Southwest Sumter, Sumter, SC 90.5 °F 99 °F 73 °F 56% NW  at  1.2 mph 0.00 in / hr 171 ft 5:24 PM EDT Rapid Fire
Sunway Knolls, Sumter, SC 91.8 °F 106 °F 77 °F 62% North  at  0.0 mph 0.00 in / hr 181 ft 5:24 PM EDT Rapid Fire
Garden Gate, Sumter, SC 91.2 °F 103 °F 76 °F 61% ESE  at  0.0 mph 0.00 in / hr 200 ft 5:24 PM EDT Rapid Fire
Dalzell,SC, Sumter, SC 89.2 °F 103 °F 78 °F 69% West  at  0.0 mph 0.00 in / hr 185 ft 5:24 PM EDT Rapid Fire
Historic Hills, Dalzell, SC 91.6 °F 123 °F 86 °F 84% SW  at  1.6 mph 0.00 in / hr 219 ft 5:24 PM EDT Rapid Fire
RAWS SANTEE NWR SC, Santee, SC 92 °F 103 °F 75 °F 57% SW  at  3 mph 0.00 in / hr 78 ft 4:44 PM EDT MADIS

Show More Stations Show Fewer Stations